Time;durP1;ratioP1;P1;durP2;ratioP2;P2;SDS_P1;SDS_P2;PMS_P1;PMS_P2;Temp;Humidity;BMP_temperature;BMP_pressure;BME280_temperature;BME280_humidity;BME280_pressure;Samples;Min_cycle;Max_cycle;Signal;HPM_P1;HPM_P2
2021/08/28 06:54:09;;;;;;;2.33;2.00;;;;;;;;;;5078811;23;20067;-76
2021/08/28 06:56:34;;;;;;;3.60;1.88;;;;;;;;;;4933899;29;20031;-76
2021/08/28 06:58:59;;;;;;;4.57;3.13;;;;;;;;;;4935496;29;20028;-75
2021/08/28 07:01:25;;;;;;;4.03;2.63;;;;;;;;;;4925682;29;20379;-76
2021/08/28 07:03:51;;;;;;;3.25;2.70;;;;;;;;;;4925110;29;20546;-77
2021/08/28 07:06:16;;;;;;;3.10;2.80;;;;;;;;;;4931257;29;20023;-76
2021/08/28 07:08:42;;;;;;;2.53;2.17;;;;;;;;;;4930038;29;20083;-76
2021/08/28 07:11:07;;;;;;;3.20;2.90;;;;;;;;;;4930727;29;20467;-76
2021/08/28 07:13:33;;;;;;;5.10;2.80;;;;;;;;;;4930409;29;20020;-76
2021/08/28 07:15:59;;;;;;;3.97;3.00;;;;;;;;;;4928017;29;20812;-76
2021/08/28 07:18:24;;;;;;;4.25;2.50;;;;;;;;;;4920308;29;20467;-76
2021/08/28 07:20:50;;;;;;;2.92;2.30;;;;;;;;;;4920520;29;20024;-76
2021/08/28 07:23:16;;;;;;;2.53;2.17;;;;;;;;;;4920232;29;20032;-76
2021/08/28 07:25:41;;;;;;;3.17;2.38;;;;;;;;;;4926847;29;20414;-76
2021/08/28 07:28:09;;;;;;;3.88;2.30;;;;;;;;;;4924867;29;20119;-77
2021/08/28 07:30:34;;;;;;;3.78;2.10;;;;;;;;;;4939152;29;20153;-76
2021/08/28 07:33:00;;;;;;;2.45;2.10;;;;;;;;;;4938667;29;20063;-76
2021/08/28 07:35:27;;;;;;;3.05;1.95;;;;;;;;;;4939169;29;20035;-76
2021/08/28 07:37:52;;;;;;;3.38;2.20;;;;;;;;;;4935085;29;20475;-74
2021/08/28 07:40:18;;;;;;;2.53;1.90;;;;;;;;;;4919164;29;20028;-74
2021/08/28 07:42:43;;;;;;;2.08;1.88;;;;;;;;;;4919983;29;20065;-74
2021/08/28 07:45:09;;;;;;;2.45;2.20;;;;;;;;;;4920296;29;20028;-74
2021/08/28 07:47:34;;;;;;;3.05;2.33;;;;;;;;;;4920081;29;20102;-75
2021/08/28 07:50:00;;;;;;;3.10;2.38;;;;;;;;;;4920334;29;20403;-76
2021/08/28 07:52:25;;;;;;;3.60;2.20;;;;;;;;;;4920003;29;20462;-76
2021/08/28 10:01:49;;;;;;;3.13;1.85;;;;;;;;;;4887316;29;20056;-83
2021/08/28 10:04:15;;;;;;;4.25;2.35;;;;;;;;;;4880229;29;20124;-83
2021/08/28 10:06:48;;;;;;;2.65;1.83;;;;;;;;;;4881315;29;20033;-83
2021/08/28 10:09:16;;;;;;;3.45;2.03;;;;;;;;;;4864592;29;20465;-77
2021/08/28 10:11:47;;;;;;;4.25;1.88;;;;;;;;;;4860306;29;20073;-79
2021/08/28 10:14:15;;;;;;;2.97;1.83;;;;;;;;;;4862421;29;20393;-88
2021/08/28 10:16:44;;;;;;;4.60;2.03;;;;;;;;;;4862323;29;20056;-87
2021/08/28 10:19:13;;;;;;;2.33;1.63;;;;;;;;;;4859761;29;20037;-80
2021/08/28 10:21:38;;;;;;;;;;;;;;;;;;4862367;29;20036;-87
2021/08/28 10:24:04;;;;;;;3.35;2.00;;;;;;;;;;4861897;29;19916;-80
2021/08/28 10:26:31;;;;;;;2.03;1.80;;;;;;;;;;4861502;29;20078;-80
2021/08/28 10:29:04;;;;;;;2.80;2.00;;;;;;;;;;4861481;29;20541;-78
2021/08/28 10:31:30;;;;;;;2.47;2.20;;;;;;;;;;4861521;29;20038;-77
2021/08/28 10:33:56;;;;;;;3.28;2.05;;;;;;;;;;4861538;29;20030;-79
2021/08/28 10:36:22;;;;;;;2.50;1.90;;;;;;;;;;4860144;29;20037;-79
2021/08/28 10:38:49;;;;;;;2.80;2.20;;;;;;;;;;4861722;29;20524;-79
2021/08/28 10:41:16;;;;;;;2.88;2.00;;;;;;;;;;4865523;29;20032;-78
2021/08/28 10:43:43;;;;;;;3.85;2.38;;;;;;;;;;4863894;29;20032;-83
2021/08/28 10:46:26;;;;;;;4.18;1.80;;;;;;;;;;4865021;29;20108;-85
2021/08/28 10:49:00;;;;;;;2.35;2.05;;;;;;;;;;4866087;29;20029;-81
2021/08/28 10:51:35;;;;;;;3.95;2.22;;;;;;;;;;4865002;29;20392;-82
2021/08/28 10:54:03;;;;;;;2.50;1.88;;;;;;;;;;4865009;29;20021;-80
2021/08/28 10:56:36;;;;;;;3.05;1.90;;;;;;;;;;4864755;29;20029;-81
2021/08/28 10:59:22;;;;;;;2.33;1.90;;;;;;;;;;4864605;29;20037;-80
2021/08/28 11:02:07;;;;;;;2.60;1.98;;;;;;;;;;4864677;29;20061;-80
2021/08/28 11:04:36;;;;;;;2.05;1.85;;;;;;;;;;4864722;29;20030;-78
2021/08/28 11:07:16;;;;;;;3.22;1.98;;;;;;;;;;4864858;29;20047;-78
2021/08/28 11:10:11;;;;;;;2.50;2.10;;;;;;;;;;4864256;29;20096;-85
2021/08/28 11:12:59;;;;;;;2.30;2.10;;;;;;;;;;4864902;29;20022;-83
2021/08/28 11:15:25;;;;;;;2.30;1.83;;;;;;;;;;4863021;29;20141;-79
2021/08/28 11:17:51;;;;;;;2.28;1.75;;;;;;;;;;4864584;29;20057;-78
2021/08/28 11:20:25;;;;;;;3.13;1.98;;;;;;;;;;4858422;29;20030;-78
2021/08/28 11:22:51;;;;;;;3.10;2.20;;;;;;;;;;4862160;29;20052;-82
2021/08/28 11:25:20;;;;;;;3.80;2.08;;;;;;;;;;4864307;29;20030;-84
2021/08/28 11:27:47;;;;;;;3.35;1.90;;;;;;;;;;4864419;29;20032;-85
2021/08/28 11:30:15;;;;;;;4.22;2.00;;;;;;;;;;4864123;29;20085;-84
2021/08/28 11:32:58;;;;;;;2.13;1.90;;;;;;;;;;4864557;29;20029;-83
2021/08/28 11:35:31;;;;;;;4.95;2.25;;;;;;;;;;4864717;29;20440;-83
2021/08/28 11:38:05;;;;;;;2.20;1.95;;;;;;;;;;4864220;29;20086;-82
2021/08/28 11:40:31;;;;;;;2.25;1.85;;;;;;;;;;4864155;29;20109;-83
2021/08/28 11:42:58;;;;;;;1.88;1.60;;;;;;;;;;4863961;29;20053;-84
2021/08/28 11:45:32;;;;;;;2.10;1.70;;;;;;;;;;4863841;29;20477;-83
2021/08/28 11:47:58;;;;;;;1.95;1.73;;;;;;;;;;4863246;29;20164;-83
2021/08/28 11:50:31;;;;;;;2.30;1.80;;;;;;;;;;4862956;29;20025;-85
2021/08/28 11:52:57;;;;;;;2.60;2.15;;;;;;;;;;4863797;29;20021;-82
2021/08/28 11:55:23;;;;;;;2.20;1.85;;;;;;;;;;4863572;29;20140;-83
2021/08/28 11:57:59;;;;;;;4.20;2.50;;;;;;;;;;4864069;29;20029;-78
2021/08/28 12:00:30;;;;;;;3.45;1.98;;;;;;;;;;4864863;29;20503;-83
2021/08/28 12:03:00;;;;;;;2.47;1.80;;;;;;;;;;4865361;29;20124;-84
2021/08/28 12:05:28;;;;;;;2.45;1.75;;;;;;;;;;4864705;29;20374;-83
2021/08/28 12:07:56;;;;;;;1.90;1.50;;;;;;;;;;4864523;29;20041;-83
2021/08/28 12:10:22;;;;;;;3.90;1.90;;;;;;;;;;4865325;29;20041;-83
2021/08/28 12:12:58;;;;;;;3.22;2.15;;;;;;;;;;4864816;29;20036;-83
2021/08/28 12:15:24;;;;;;;1.45;1.35;;;;;;;;;;4864240;29;20029;-83
2021/08/28 12:17:51;;;;;;;2.50;1.67;;;;;;;;;;4862484;29;20424;-82
2021/08/28 12:20:24;;;;;;;2.03;1.83;;;;;;;;;;4846244;29;20090;-82
2021/08/28 12:22:54;;;;;;;4.60;2.00;;;;;;;;;;4846492;29;20041;-83
2021/08/28 12:25:20;;;;;;;3.50;1.88;;;;;;;;;;4845877;29;20061;-83
2021/08/28 12:27:47;;;;;;;2.20;1.80;;;;;;;;;;4846146;29;20062;-83
2021/08/28 12:30:13;;;;;;;1.92;1.40;;;;;;;;;;4865504;29;20198;-83
2021/08/28 12:32:39;;;;;;;1.83;1.30;;;;;;;;;;4869121;29;20025;-83
2021/08/28 12:35:06;;;;;;;1.83;1.50;;;;;;;;;;4869174;29;20035;-83
2021/08/28 12:37:32;;;;;;;3.22;1.60;;;;;;;;;;4868852;29;20026;-83
2021/08/28 12:40:02;;;;;;;3.58;1.70;;;;;;;;;;4865628;29;20040;-83
2021/08/28 12:42:33;;;;;;;2.30;1.42;;;;;;;;;;4864334;29;20033;-82
2021/08/28 12:45:03;;;;;;;2.33;1.60;;;;;;;;;;4864142;29;20034;-83
2021/08/28 12:47:31;;;;;;;2.13;1.70;;;;;;;;;;4864321;29;20029;-81
2021/08/28 12:49:57;;;;;;;1.75;1.48;;;;;;;;;;4863666;29;20037;-83
2021/08/28 12:52:38;;;;;;;1.83;1.40;;;;;;;;;;4862725;29;20129;-82
2021/08/28 12:55:06;;;;;;;1.73;1.40;;;;;;;;;;4862625;29;20108;-83
2021/08/28 12:57:32;;;;;;;1.73;1.33;;;;;;;;;;4862734;29;20477;-84
2021/08/28 13:00:06;;;;;;;2.78;1.35;;;;;;;;;;4862802;29;20438;-83
2021/08/28 13:02:50;;;;;;;1.95;1.60;;;;;;;;;;4875780;29;20054;-81
2021/08/28 13:05:23;;;;;;;1.60;1.40;;;;;;;;;;4862661;29;20041;-83
2021/08/28 13:07:49;;;;;;;1.80;1.50;;;;;;;;;;4862485;29;20036;-83
2021/08/28 13:10:16;;;;;;;1.33;1.23;;;;;;;;;;4862408;29;20029;-83
2021/08/28 13:12:48;;;;;;;1.42;1.33;;;;;;;;;;4862518;29;20029;-86
2021/08/28 13:15:26;;;;;;;5.20;1.02;;;;;;;;;;4861756;29;20041;-85
2021/08/28 13:17:56;;;;;;;1.38;1.27;;;;;;;;;;4862426;29;20405;-85
2021/08/28 13:20:25;;;;;;;1.60;1.45;;;;;;;;;;4862487;29;20025;-87
2021/08/28 13:22:55;;;;;;;2.03;1.20;;;;;;;;;;4862371;29;20034;-85
2021/08/28 13:25:20;;;;;;;1.65;1.55;;;;;;;;;;4862595;29;20029;-87
2021/08/28 13:27:46;;;;;;;1.73;1.20;;;;;;;;;;4862388;29;20037;-93
2021/08/28 13:30:18;;;;;;;4.68;1.30;;;;;;;;;;4862570;29;20078;-89
2021/08/28 13:33:10;;;;;;;2.47;1.30;;;;;;;;;;4862771;29;20033;-84
2021/08/28 13:35:39;;;;;;;1.88;1.40;;;;;;;;;;4859660;29;20097;-84
2021/08/28 13:38:08;;;;;;;1.93;1.57;;;;;;;;;;4861534;29;20492;-84
2021/08/28 13:40:35;;;;;;;1.58;1.40;;;;;;;;;;4861534;29;20275;-83
2021/08/28 13:43:01;;;;;;;1.90;1.00;;;;;;;;;;4862036;29;20150;-83
2021/08/28 13:45:28;;;;;;;2.65;1.30;;;;;;;;;;4860488;29;20030;-85
2021/08/28 13:47:53;;;;;;;1.52;1.17;;;;;;;;;;4860534;29;20393;-85
2021/08/28 13:50:20;;;;;;;1.55;1.00;;;;;;;;;;4862167;29;20058;-85
2021/08/28 13:52:48;;;;;;;1.20;1.10;;;;;;;;;;4861962;29;20060;-83
2021/08/28 13:55:15;;;;;;;1.70;1.10;;;;;;;;;;4862032;29;20033;-84
2021/08/28 13:57:42;;;;;;;1.55;1.25;;;;;;;;;;4861762;29;20405;-88
2021/08/28 14:00:09;;;;;;;2.08;1.27;;;;;;;;;;4862067;29;20030;-83
2021/08/28 14:02:34;;;;;;;2.20;1.10;;;;;;;;;;4861746;29;20400;-84
2021/08/28 14:05:02;;;;;;;1.13;1.00;;;;;;;;;;4860305;29;20037;-85
2021/08/28 14:07:29;;;;;;;1.40;1.30;;;;;;;;;;4861590;29;20105;-85
2021/08/28 14:09:59;;;;;;;2.28;1.38;;;;;;;;;;4861979;29;20030;-83
2021/08/28 14:12:25;;;;;;;2.08;1.35;;;;;;;;;;4861798;29;20117;-84
2021/08/28 14:14:51;;;;;;;1.35;1.25;;;;;;;;;;4861516;29;20033;-82
2021/08/28 14:17:17;;;;;;;2.38;1.45;;;;;;;;;;4861406;29;20036;-82
2021/08/28 14:19:43;;;;;;;1.83;1.35;;;;;;;;;;4857622;29;20041;-85
2021/08/28 14:22:08;;;;;;;1.40;1.25;;;;;;;;;;4862459;29;20366;-86
2021/08/28 14:24:34;;;;;;;2.17;1.45;;;;;;;;;;4861594;29;20026;-85
2021/08/28 14:27:00;;;;;;;1.77;1.38;;;;;;;;;;4861455;29;20105;-87
2021/08/28 14:29:25;;;;;;;1.60;1.40;;;;;;;;;;4861115;29;20025;-86
2021/08/28 14:31:52;;;;;;;1.55;1.10;;;;;;;;;;4856804;29;20095;-88
2021/08/28 14:34:19;;;;;;;1.60;1.40;;;;;;;;;;4843680;29;20129;-88
2021/08/28 14:36:45;;;;;;;1.65;1.38;;;;;;;;;;4850080;29;20493;-86
2021/08/28 14:39:11;;;;;;;4.40;1.30;;;;;;;;;;4860294;29;20441;-83
2021/08/28 14:41:37;;;;;;;1.85;1.58;;;;;;;;;;4857771;29;20053;-85
2021/08/28 14:44:04;;;;;;;3.53;2.90;;;;;;;;;;4860502;29;20052;-87
2021/08/28 14:46:30;;;;;;;2.65;2.10;;;;;;;;;;4859566;29;20041;-87
2021/08/28 14:48:56;;;;;;;2.90;2.08;;;;;;;;;;4860547;29;20051;-86
2021/08/28 14:51:21;;;;;;;2.03;1.75;;;;;;;;;;4860853;29;20030;-87
2021/08/28 14:53:47;;;;;;;1.98;1.80;;;;;;;;;;4861099;29;20022;-87
2021/08/28 14:56:12;;;;;;;3.20;1.75;;;;;;;;;;4861057;29;20370;-84
2021/08/28 14:58:38;;;;;;;1.92;1.70;;;;;;;;;;4846627;29;20076;-87
2021/08/28 15:01:04;;;;;;;1.95;1.52;;;;;;;;;;4872121;29;20490;-87
2021/08/28 15:03:31;;;;;;;1.65;1.38;;;;;;;;;;4842303;29;20141;-86
2021/08/28 15:05:57;;;;;;;2.38;1.30;;;;;;;;;;4844653;29;20038;-86
2021/08/28 15:08:22;;;;;;;2.42;1.70;;;;;;;;;;4860801;29;20037;-86
2021/08/28 15:10:48;;;;;;;3.53;1.40;;;;;;;;;;4860822;29;20029;-85
2021/08/28 15:13:15;;;;;;;2.10;1.38;;;;;;;;;;4860645;29;20029;-86
2021/08/28 15:15:41;;;;;;;2.08;1.38;;;;;;;;;;4861117;29;20481;-84
2021/08/28 15:18:06;;;;;;;2.20;1.50;;;;;;;;;;4856532;29;20061;-87
2021/08/28 15:20:32;;;;;;;1.77;1.40;;;;;;;;;;4842542;29;20382;-85
2021/08/28 15:22:57;;;;;;;1.50;1.40;;;;;;;;;;4842404;29;20053;-87
2021/08/28 15:25:23;;;;;;;1.75;1.33;;;;;;;;;;4844045;29;20598;-89
2021/08/28 15:27:48;;;;;;;2.63;1.58;;;;;;;;;;4846877;29;20037;-90
2021/08/28 15:30:17;;;;;;;2.70;1.77;;;;;;;;;;4864757;29;20104;-90
2021/08/28 15:32:43;;;;;;;2.90;1.70;;;;;;;;;;4850804;29;20041;-89
2021/08/28 15:35:09;;;;;;;2.00;1.30;;;;;;;;;;4845538;29;20034;-85
2021/08/28 15:37:35;;;;;;;1.98;1.50;;;;;;;;;;4845486;29;20493;-88
2021/08/28 15:40:00;;;;;;;2.95;1.52;;;;;;;;;;4845839;29;20066;-83
2021/08/28 15:42:29;;;;;;;2.10;1.40;;;;;;;;;;4845740;29;20030;-86
2021/08/28 15:44:55;;;;;;;1.90;1.63;;;;;;;;;;4845758;29;20089;-92
2021/08/28 15:47:20;;;;;;;3.03;1.40;;;;;;;;;;4847996;29;20072;-86
2021/08/28 15:49:46;;;;;;;1.27;1.17;;;;;;;;;;4865110;29;20116;-88
2021/08/28 15:52:12;;;;;;;1.60;1.42;;;;;;;;;;4865374;29;20104;-89
2021/08/28 15:54:37;;;;;;;1.30;1.20;;;;;;;;;;4865727;29;20057;-87
2021/08/28 15:57:03;;;;;;;2.13;1.30;;;;;;;;;;4865618;29;20033;-88
2021/08/28 15:59:29;;;;;;;1.95;1.25;;;;;;;;;;4865379;29;20029;-87
2021/08/28 16:01:54;;;;;;;1.73;1.60;;;;;;;;;;4865310;29;20170;-83
2021/08/28 16:04:20;;;;;;;2.00;1.33;;;;;;;;;;4865403;29;20030;-85
2021/08/28 16:06:46;;;;;;;1.85;1.40;;;;;;;;;;4865138;29;20466;-86
2021/08/28 16:09:11;;;;;;;1.63;1.50;;;;;;;;;;4865368;29;20037;-86
2021/08/28 16:11:37;;;;;;;1.58;1.33;;;;;;;;;;4865041;29;20036;-83
2021/08/28 16:14:02;;;;;;;1.48;1.17;;;;;;;;;;4865491;29;20038;-83
2021/08/28 16:16:29;;;;;;;1.73;1.30;;;;;;;;;;4864556;29;20078;-84
2021/08/28 16:18:55;;;;;;;1.75;1.50;;;;;;;;;;4854991;29;20109;-85
2021/08/28 16:21:20;;;;;;;1.52;1.23;;;;;;;;;;4846535;29;20060;-83
2021/08/28 16:23:46;;;;;;;2.20;1.50;;;;;;;;;;4847548;29;20052;-86
2021/08/28 16:26:11;;;;;;;1.90;1.60;;;;;;;;;;4846666;29;20041;-83
2021/08/28 16:28:37;;;;;;;1.60;1.50;;;;;;;;;;4853286;29;20021;-86
2021/08/28 16:31:03;;;;;;;2.50;1.70;;;;;;;;;;4864231;29;20026;-87
2021/08/28 16:33:29;;;;;;;1.90;1.65;;;;;;;;;;4865074;29;20029;-87
2021/08/28 16:35:56;;;;;;;2.38;2.10;;;;;;;;;;4865257;29;20170;-88
2021/08/28 16:38:21;;;;;;;1.63;1.45;;;;;;;;;;4863469;29;20029;-86
2021/08/28 16:40:47;;;;;;;1.60;1.40;;;;;;;;;;4865135;29;20026;-87
2021/08/28 16:43:13;;;;;;;1.98;1.50;;;;;;;;;;4865252;29;20128;-85
2021/08/28 16:45:38;;;;;;;1.85;1.52;;;;;;;;;;4864896;29;20057;-87
2021/08/28 16:48:05;;;;;;;3.28;1.60;;;;;;;;;;4864679;29;20033;-87
2021/08/28 16:50:31;;;;;;;1.30;1.20;;;;;;;;;;4865285;29;20021;-80
2021/08/28 16:52:56;;;;;;;2.00;1.60;;;;;;;;;;4864773;29;20091;-88
2021/08/28 16:55:22;;;;;;;1.45;1.33;;;;;;;;;;4864715;29;20025;-88
2021/08/28 16:57:48;;;;;;;1.67;1.33;;;;;;;;;;4864211;29;20089;-89
2021/08/28 17:00:14;;;;;;;1.60;1.33;;;;;;;;;;4865061;29;20037;-88
2021/08/28 17:02:40;;;;;;;1.63;1.20;;;;;;;;;;4865474;29;20046;-90
2021/08/28 17:05:06;;;;;;;1.52;1.30;;;;;;;;;;4866032;29;20032;-89
2021/08/28 17:07:32;;;;;;;1.63;1.30;;;;;;;;;;4865543;29;20037;-88
2021/08/28 17:10:00;;;;;;;1.95;1.27;;;;;;;;;;4866072;29;20041;-83
2021/08/28 17:12:26;;;;;;;2.00;1.48;;;;;;;;;;4862865;29;20105;-81
2021/08/28 17:14:52;;;;;;;1.23;1.10;;;;;;;;;;4862355;29;20500;-81
2021/08/28 17:17:18;;;;;;;1.95;1.55;;;;;;;;;;4860215;29;20205;-81
2021/08/28 17:19:43;;;;;;;1.73;1.55;;;;;;;;;;4862236;29;20029;-81
2021/08/28 17:22:10;;;;;;;1.85;1.60;;;;;;;;;;4861778;29;20041;-83
2021/08/28 17:24:37;;;;;;;1.63;1.23;;;;;;;;;;4862239;29;20032;-82
2021/08/28 17:27:04;;;;;;;1.40;1.08;;;;;;;;;;4862394;29;20057;-81
2021/08/28 17:29:30;;;;;;;1.80;1.52;;;;;;;;;;4862212;29;20529;-82
2021/08/28 17:31:56;;;;;;;2.10;1.65;;;;;;;;;;4862157;29;20033;-82
2021/08/28 17:34:22;;;;;;;1.83;1.40;;;;;;;;;;4861841;29;20503;-81
2021/08/28 17:36:49;;;;;;;2.47;1.42;;;;;;;;;;4861859;29;20033;-80
2021/08/28 17:39:15;;;;;;;2.15;1.70;;;;;;;;;;4861766;29;20029;-81
2021/08/28 17:41:41;;;;;;;2.63;1.95;;;;;;;;;;4860556;29;20034;-79
2021/08/28 17:44:07;;;;;;;2.42;1.42;;;;;;;;;;4862204;29;20026;-83
2021/08/28 17:46:34;;;;;;;2.70;1.55;;;;;;;;;;4861869;29;20033;-82
2021/08/28 17:49:02;;;;;;;3.00;2.03;;;;;;;;;;4861409;29;20037;-77
2021/08/28 17:51:28;;;;;;;2.92;2.38;;;;;;;;;;4861613;29;20056;-80
2021/08/28 17:53:53;;;;;;;2.75;1.50;;;;;;;;;;4861652;29;20469;-83
2021/08/28 17:56:19;;;;;;;4.85;3.70;;;;;;;;;;4862183;29;20037;-83
2021/08/28 17:58:45;;;;;;;2.92;2.22;;;;;;;;;;4860336;29;20030;-87
2021/08/28 18:01:10;;;;;;;2.45;1.75;;;;;;;;;;4860279;29;20029;-82
2021/08/28 18:03:36;;;;;;;4.03;2.38;;;;;;;;;;4861438;29;20061;-80
2021/08/28 18:06:04;;;;;;;2.90;2.30;;;;;;;;;;4861545;29;20025;-82
2021/08/28 18:08:29;;;;;;;1.95;1.73;;;;;;;;;;4861388;29;20104;-84
2021/08/28 18:10:55;;;;;;;1.30;1.20;;;;;;;;;;4861558;29;20537;-81
2021/08/28 18:13:21;;;;;;;2.03;1.10;;;;;;;;;;4861615;29;20120;-74
2021/08/28 18:15:47;;;;;;;2.50;1.60;;;;;;;;;;4861346;29;20095;-77
2021/08/28 18:18:13;;;;;;;1.48;1.00;;;;;;;;;;4861190;29;20397;-81
2021/08/28 18:20:39;;;;;;;2.22;1.20;;;;;;;;;;4861177;29;20101;-79
2021/08/28 18:23:05;;;;;;;2.30;1.30;;;;;;;;;;4861187;29;20025;-79
2021/08/28 18:25:31;;;;;;;2.95;1.00;;;;;;;;;;4861059;29;20485;-76
2021/08/28 18:27:57;;;;;;;1.50;1.00;;;;;;;;;;4859414;29;20025;-74
2021/08/28 18:30:24;;;;;;;1.73;1.33;;;;;;;;;;4859562;29;20030;-74
2021/08/28 18:32:50;;;;;;;1.20;1.10;;;;;;;;;;4861035;29;20433;-74
2021/08/28 18:35:17;;;;;;;5.63;3.40;;;;;;;;;;4861482;29;20026;-75
2021/08/28 18:37:43;;;;;;;2.88;1.50;;;;;;;;;;4861025;29;20033;-75
2021/08/28 18:40:11;;;;;;;2.17;1.23;;;;;;;;;;4861202;29;20438;-75
2021/08/28 18:42:39;;;;;;;1.80;1.10;;;;;;;;;;4861088;29;20021;-76
2021/08/28 18:45:05;;;;;;;2.17;0.90;;;;;;;;;;4861126;29;20032;-76
2021/08/28 18:47:30;;;;;;;1.35;1.17;;;;;;;;;;4861103;29;20033;-76
2021/08/28 18:49:56;;;;;;;0.82;0.80;;;;;;;;;;4861061;29;20473;-76
2021/08/28 18:52:22;;;;;;;1.35;0.90;;;;;;;;;;4860986;29;20105;-76
2021/08/28 18:54:48;;;;;;;1.10;0.90;;;;;;;;;;4861087;29;20497;-76
2021/08/28 18:57:14;;;;;;;1.85;0.80;;;;;;;;;;4861071;29;20032;-75
2021/08/28 18:59:40;;;;;;;1.60;0.80;;;;;;;;;;4861691;29;20086;-77
2021/08/28 19:02:06;;;;;;;1.20;0.80;;;;;;;;;;4864589;29;20053;-76
2021/08/28 19:04:32;;;;;;;2.67;2.15;;;;;;;;;;4864188;29;20041;-77
2021/08/28 19:06:57;;;;;;;2.58;1.30;;;;;;;;;;4864900;29;20090;-79
2021/08/28 19:09:23;;;;;;;0.80;0.60;;;;;;;;;;4864579;29;20430;-81
2021/08/28 19:11:49;;;;;;;0.90;0.60;;;;;;;;;;4864762;29;20044;-74
2021/08/28 19:14:15;;;;;;;1.30;0.70;;;;;;;;;;4864837;29;20033;-75
2021/08/28 19:16:41;;;;;;;1.55;1.13;;;;;;;;;;4864608;29;20037;-74
2021/08/28 19:19:07;;;;;;;1.48;1.20;;;;;;;;;;4864381;29;20108;-74
2021/08/28 19:21:34;;;;;;;2.40;1.65;;;;;;;;;;4864835;29;20029;-77
2021/08/28 19:23:59;;;;;;;1.75;1.30;;;;;;;;;;4864417;29;20100;-78
2021/08/28 19:26:26;;;;;;;1.98;1.35;;;;;;;;;;4864457;29;20052;-78
2021/08/28 19:28:55;;;;;;;1.70;1.30;;;;;;;;;;4864478;29;20116;-76
2021/08/28 19:31:22;;;;;;;4.30;1.40;;;;;;;;;;4864171;29;20113;-78
2021/08/28 19:33:48;;;;;;;2.47;1.88;;;;;;;;;;4864385;29;20026;-82
2021/08/28 19:36:16;;;;;;;9.40;6.30;;;;;;;;;;4862955;29;20504;-85
2021/08/28 19:38:42;;;;;;;3.47;2.38;;;;;;;;;;4863868;29;20029;-78
2021/08/28 19:41:08;;;;;;;3.78;2.70;;;;;;;;;;4864418;29;20038;-78
2021/08/28 19:43:37;;;;;;;3.35;2.40;;;;;;;;;;4864296;29;20073;-83
2021/08/28 19:46:04;;;;;;;1.42;1.20;;;;;;;;;;4864160;29;20030;-81
2021/08/28 19:48:31;;;;;;;5.45;3.85;;;;;;;;;;4863629;29;20034;-79
2021/08/28 19:50:57;;;;;;;3.45;1.60;;;;;;;;;;4864109;29;20036;-81
2021/08/28 19:53:25;;;;;;;1.80;1.20;;;;;;;;;;4863855;29;20384;-79
2021/08/28 19:55:51;;;;;;;2.58;1.98;;;;;;;;;;4863825;29;20034;-78
2021/08/28 19:58:17;;;;;;;1.95;1.10;;;;;;;;;;4863660;29;20440;-79
2021/08/28 20:00:43;;;;;;;2.30;1.85;;;;;;;;;;4863863;29;20109;-78
2021/08/28 20:03:09;;;;;;;2.58;1.50;;;;;;;;;;4863515;29;20493;-79
2021/08/28 20:05:35;;;;;;;3.00;1.45;;;;;;;;;;4863947;29;20078;-77
2021/08/28 20:08:01;;;;;;;1.25;1.10;;;;;;;;;;4863451;29;20029;-77
2021/08/28 20:10:27;;;;;;;5.15;2.88;;;;;;;;;;4863562;29;20377;-77
2021/08/28 20:12:53;;;;;;;2.42;1.80;;;;;;;;;;4862520;29;20473;-78
2021/08/28 20:15:18;;;;;;;2.10;1.50;;;;;;;;;;4863608;29;20109;-77
2021/08/28 20:17:44;;;;;;;3.53;3.03;;;;;;;;;;4863525;29;20191;-78
2021/08/28 20:20:11;;;;;;;1.77;1.50;;;;;;;;;;4863573;29;20026;-77
2021/08/28 20:22:38;;;;;;;1.80;1.27;;;;;;;;;;4863745;29;20408;-86
2021/08/28 20:25:04;;;;;;;7.07;3.28;;;;;;;;;;4863918;29;20473;-85
2021/08/28 20:27:29;;;;;;;3.42;2.60;;;;;;;;;;4862139;29;20080;-85
2021/08/28 20:29:55;;;;;;;4.88;3.88;;;;;;;;;;4862397;29;20057;-85
2021/08/28 20:32:24;;;;;;;2.60;1.70;;;;;;;;;;4863993;29;20064;-86
2021/08/28 20:34:53;;;;;;;2.53;1.58;;;;;;;;;;4863349;29;20053;-85
2021/08/28 20:37:19;;;;;;;2.97;1.65;;;;;;;;;;4863286;29;20033;-85
2021/08/28 20:39:45;;;;;;;2.30;1.45;;;;;;;;;;4863832;29;20439;-87
2021/08/28 20:42:11;;;;;;;2.05;1.30;;;;;;;;;;4863393;29;20033;-86
2021/08/28 20:44:36;;;;;;;3.47;1.48;;;;;;;;;;4862158;29;20117;-87
2021/08/28 20:47:03;;;;;;;2.10;1.33;;;;;;;;;;4862733;29;20113;-85
2021/08/28 20:49:32;;;;;;;2.20;1.52;;;;;;;;;;4862581;29;20048;-85
2021/08/28 20:51:59;;;;;;;8.55;1.73;;;;;;;;;;4862984;29;20034;-85
2021/08/28 20:54:25;;;;;;;2.13;1.50;;;;;;;;;;4862811;29;20047;-85
2021/08/28 20:56:52;;;;;;;2.50;1.75;;;;;;;;;;4862656;29;20025;-85
2021/08/28 20:59:18;;;;;;;2.42;1.38;;;;;;;;;;4862429;29;20032;-85
2021/08/28 21:01:44;;;;;;;1.90;1.70;;;;;;;;;;4862516;29;20062;-85
2021/08/28 21:04:10;;;;;;;2.60;1.65;;;;;;;;;;4862882;29;20420;-84
2021/08/28 21:06:37;;;;;;;2.33;1.50;;;;;;;;;;4862908;29;20041;-85
2021/08/28 21:09:03;;;;;;;1.95;1.38;;;;;;;;;;4861200;29;20036;-84
2021/08/28 21:11:29;;;;;;;2.95;1.42;;;;;;;;;;4862802;29;20477;-84
2021/08/28 21:13:54;;;;;;;2.13;1.60;;;;;;;;;;4862187;29;20029;-85
2021/08/28 21:16:21;;;;;;;5.85;1.75;;;;;;;;;;4862435;29;20116;-85
2021/08/28 21:18:46;;;;;;;1.58;1.48;;;;;;;;;;4862354;29;20037;-84
2021/08/28 21:21:12;;;;;;;2.50;1.58;;;;;;;;;;4862615;29;20093;-84
2021/08/28 21:23:37;;;;;;;2.85;1.65;;;;;;;;;;4861885;29;20090;-84
2021/08/28 21:26:03;;;;;;;1.58;1.40;;;;;;;;;;4862573;29;20029;-84
2021/08/28 21:28:28;;;;;;;4.45;1.40;;;;;;;;;;4862127;29;20033;-84
2021/08/28 21:30:54;;;;;;;2.17;1.30;;;;;;;;;;4862166;29;20037;-84
2021/08/28 21:33:19;;;;;;;1.40;1.30;;;;;;;;;;4862367;29;20385;-84
2021/08/28 21:35:44;;;;;;;2.15;1.30;;;;;;;;;;4862299;29;20112;-84
2021/08/28 21:38:10;;;;;;;1.90;1.50;;;;;;;;;;4862046;29;20377;-84
2021/08/28 21:40:37;;;;;;;2.67;1.90;;;;;;;;;;4860781;29;20038;-84
2021/08/28 21:43:03;;;;;;;1.50;1.40;;;;;;;;;;4860650;29;20025;-84
2021/08/28 21:45:29;;;;;;;3.05;1.77;;;;;;;;;;4862061;29;20041;-83
2021/08/28 21:47:54;;;;;;;2.20;1.58;;;;;;;;;;4862424;29;20501;-83
2021/08/28 21:50:20;;;;;;;2.03;1.63;;;;;;;;;;4862151;29;20060;-83
2021/08/28 21:52:45;;;;;;;2.30;1.65;;;;;;;;;;4861873;29;20033;-83
2021/08/28 21:55:11;;;;;;;1.75;1.63;;;;;;;;;;4861755;29;20030;-84
2021/08/28 21:57:36;;;;;;;2.47;1.42;;;;;;;;;;4861806;29;20040;-85
2021/08/28 22:00:15;;;;;;;4.75;1.70;;;;;;;;;;4862206;29;20029;-82
